Aviation Digital Data Service (ADDS)

Output produced by TAFs form (0746 UTC 25 March 2017)
found at http://www.aviationweather.gov/adds/tafs/
 
METAR text: ZSAM 250700Z 07004MPS 2000 -RA BR FEW005 BKN009 OVC020 15/13 Q1018 NOSIG
Conditions at: ZSAM (XIAMEN , CN) observed 0700 UTC 25 March 2017
Temperature: 15.0°C (59°F)
Dewpoint: 13.0°C (55°F) [RH = 88%]
Pressure (altimeter): 30.06 inches Hg (1018.0 mb)
Winds: from the ENE (70 degrees) at 9 MPH (8 knots; 4.2 m/s)
Visibility: 1.24 miles (2.00 km)
Ceiling: 900 feet AGL
Clouds: few clouds at 500 feet AGL
broken clouds at 900 feet AGL
overcast cloud deck at 2000 feet AGL
Weather: -RA BR  (light rain, mist)

Forecast for: ZSAM (XIAMEN , CN)
Text: TAF ZSAM 250307Z 2506/2606 07004MPS 5000 BR SCT015 BKN030 TX19/2506Z TN15/2521Z
Forecast period: 0600 UTC 25 March 2017 to 0600 UTC 26 March 2017
Forecast type: FROM: standard forecast or significant change
Winds: from the ENE (70 degrees) at 9 MPH (8 knots; 4.2 m/s)
Visibility: 3 miles (5 km)
Ceiling: 3000 feet AGL
Clouds: scattered clouds at 1500 feet AGL
broken clouds at 3000 feet AGL
Weather: BR  (mist)